Time;durP1;ratioP1;P1;durP2;ratioP2;P2;SDS_P1;SDS_P2;PMS_P1;PMS_P2;Temp;Humidity;BMP_temperature;BMP_pressure;BME280_temperature;BME280_humidity;BME280_pressure;Samples;Min_cycle;Max_cycle;Signal;HPM_P1;HPM_P2
2023/03/20 00:00:07;;;;;;;16.33;12.10;;;9.10;99.90;;;;;;5036116;28;20037;-49
2023/03/20 00:02:33;;;;;;;15.27;11.32;;;9.10;99.90;;;;;;5031883;28;20403;-49
2023/03/20 00:04:59;;;;;;;17.87;12.47;;;9.10;99.90;;;;;;5031959;28;20045;-49
2023/03/20 00:07:24;;;;;;;18.73;11.85;;;9.00;99.90;;;;;;5029493;28;20049;-49
2023/03/20 00:09:50;;;;;;;18.13;12.55;;;9.00;99.90;;;;;;5030421;28;20577;-50
2023/03/20 00:12:22;;;;;;;16.58;12.10;;;9.00;99.90;;;;;;5031388;28;20112;-49
2023/03/20 00:14:48;;;;;;;18.92;13.13;;;9.00;99.90;;;;;;5031967;28;20045;-49
2023/03/20 00:17:19;;;;;;;19.13;13.67;;;9.00;99.90;;;;;;5031382;28;20040;-49
2023/03/20 00:19:45;;;;;;;16.35;11.90;;;9.00;99.90;;;;;;5030800;28;20388;-49
2023/03/20 00:22:11;;;;;;;17.52;12.45;;;9.00;99.90;;;;;;5030873;28;20046;-50
2023/03/20 00:24:37;;;;;;;18.52;12.90;;;9.00;99.90;;;;;;5031366;28;20392;-49
2023/03/20 00:27:04;;;;;;;23.20;12.68;;;8.90;99.90;;;;;;5043185;28;20040;-49
2023/03/20 00:29:31;;;;;;;19.55;13.93;;;9.00;99.90;;;;;;5030425;28;20156;-49
2023/03/20 00:31:58;;;;;;;23.73;15.65;;;8.90;99.90;;;;;;5031951;28;20465;-49
2023/03/20 00:34:26;;;;;;;;;;;8.90;99.90;;;;;;5036978;28;20071;-51
2023/03/20 00:36:52;;;;;;;29.17;16.50;;;8.90;99.90;;;;;;5049211;28;19955;-51
2023/03/20 00:39:18;;;;;;;23.73;15.80;;;8.90;99.90;;;;;;5037060;28;20090;-49
2023/03/20 00:41:52;;;;;;;28.55;17.52;;;8.90;99.90;;;;;;5051012;28;20045;-50
2023/03/20 00:44:36;;;;;;;34.28;19.00;;;8.90;99.90;;;;;;5038295;28;20090;-49
2023/03/20 00:47:16;;;;;;;34.05;18.23;;;8.80;99.90;;;;;;5049571;28;20509;-49
2023/03/20 00:49:42;;;;;;;32.67;18.00;;;8.80;99.90;;;;;;5039913;28;20052;-49
2023/03/20 00:52:11;;;;;;;26.25;17.02;;;8.80;99.90;;;;;;5047119;28;20037;-49
2023/03/20 00:54:37;;;;;;;31.98;16.90;;;8.80;99.90;;;;;;5046309;28;20038;-51
2023/03/20 00:57:23;;;;;;;28.70;15.90;;;8.70;99.90;;;;;;5031326;28;20080;-53
2023/03/20 00:59:57;;;;;;;26.75;15.18;;;8.80;99.90;;;;;;5030176;28;20112;-49
2023/03/20 01:02:27;;;;;;;31.77;16.70;;;8.80;99.90;;;;;;5029232;28;20045;-49
2023/03/20 01:04:53;;;;;;;30.55;15.73;;;8.80;99.90;;;;;;5029625;28;20410;-52
2023/03/20 01:07:19;;;;;;;35.78;14.82;;;8.70;99.90;;;;;;5039701;28;20037;-51
2023/03/20 01:09:46;;;;;;;25.52;14.60;;;8.70;99.90;;;;;;5049843;28;20037;-52
2023/03/20 01:12:12;;;;;;;;;;;8.70;99.90;;;;;;5049454;28;20120;-52
2023/03/20 01:14:37;;;;;;;25.85;14.38;;;8.70;99.90;;;;;;5049883;28;19921;-51
2023/03/20 01:17:03;;;;;;;26.02;11.85;;;8.70;99.90;;;;;;5050264;28;20051;-50
2023/03/20 01:19:29;;;;;;;20.88;11.32;;;8.70;99.90;;;;;;5049674;28;20468;-49
2023/03/20 01:21:55;;;;;;;26.40;12.50;;;8.70;99.90;;;;;;5050302;28;20380;-50
2023/03/20 01:24:20;;;;;;;24.55;11.73;;;8.70;99.90;;;;;;5050169;28;20271;-49
2023/03/20 01:26:46;;;;;;;17.77;10.93;;;8.60;99.90;;;;;;5050235;28;20049;-50
2023/03/20 01:29:23;;;;;;;20.30;10.25;;;8.60;99.90;;;;;;5049370;28;20037;-52
2023/03/20 01:31:50;;;;;;;20.13;8.35;;;8.60;99.90;;;;;;5049847;28;20063;-49
2023/03/20 01:34:17;;;;;;;18.38;8.95;;;8.60;99.90;;;;;;5050159;28;20045;-50
2023/03/20 01:36:52;;;;;;;;;;;8.60;99.90;;;;;;5050476;28;20083;-49
2023/03/20 01:39:20;;;;;;;17.38;8.43;;;8.50;99.90;;;;;;5048533;28;19920;-51
2023/03/20 01:41:47;;;;;;;13.90;7.25;;;8.50;99.90;;;;;;5049438;28;20508;-50
2023/03/20 01:44:22;;;;;;;16.50;8.00;;;8.50;99.90;;;;;;5055209;28;20152;-49
2023/03/20 01:46:51;;;;;;;13.98;7.28;;;8.50;99.90;;;;;;5050100;28;20068;-50
2023/03/20 01:49:20;;;;;;;16.63;7.63;;;8.50;99.90;;;;;;5049026;28;20048;-49
2023/03/20 01:51:50;;;;;;;11.95;6.70;;;8.40;99.90;;;;;;5049675;28;20041;-49
2023/03/20 01:54:17;;;;;;;17.20;6.65;;;8.50;99.90;;;;;;5034175;28;20041;-49
2023/03/20 01:56:49;;;;;;;13.77;6.32;;;8.40;99.90;;;;;;5035214;28;20068;-49
2023/03/20 01:59:27;;;;;;;12.15;6.45;;;8.40;99.90;;;;;;5045368;28;20037;-51
2023/03/20 02:01:53;;;;;;;21.02;7.25;;;8.40;99.90;;;;;;5049113;28;20087;-49
2023/03/20 02:04:22;;;;;;;12.38;7.32;;;8.40;99.90;;;;;;5045977;28;20534;-50
2023/03/20 02:06:48;;;;;;;12.35;6.97;;;8.40;99.90;;;;;;5049126;28;20037;-50
2023/03/20 02:09:15;;;;;;;13.00;7.78;;;8.30;99.90;;;;;;5038498;28;20045;-51
2023/03/20 02:11:41;;;;;;;12.73;8.23;;;8.40;99.90;;;;;;5028303;28;20041;-52
2023/03/20 02:14:08;;;;;;;18.60;8.80;;;8.40;99.90;;;;;;5029662;28;20037;-50
2023/03/20 02:16:34;;;;;;;18.80;9.23;;;8.40;99.90;;;;;;5029140;28;20037;-49
2023/03/20 02:19:00;;;;;;;19.05;9.02;;;8.30;99.90;;;;;;5029011;28;20045;-50
2023/03/20 02:22:03;;;;;;;17.48;9.57;;;8.30;99.90;;;;;;5040050;28;20116;-51
2023/03/20 02:25:14;;;;;;;21.50;10.57;;;8.30;99.90;;;;;;5048520;28;20049;-49
2023/03/20 02:28:10;;;;;;;23.85;11.30;;;8.30;99.90;;;;;;5048817;28;20053;-52
2023/03/20 02:31:04;;;;;;;17.85;10.07;;;8.30;99.90;;;;;;5049530;28;20041;-52
2023/03/20 02:34:11;;;;;;;31.23;12.10;;;8.30;99.90;;;;;;5053591;28;20090;-49
2023/03/20 02:37:20;;;;;;;17.00;11.07;;;8.30;99.90;;;;;;5050212;28;20636;-49
2023/03/20 02:39:57;;;;;;;24.15;11.68;;;8.30;99.90;;;;;;5050778;28;20052;-51
2023/03/20 02:43:10;;;;;;;20.25;11.60;;;8.30;99.90;;;;;;5041588;28;20418;-50
2023/03/20 02:46:11;;;;;;;22.10;12.70;;;8.30;99.90;;;;;;5010501;28;20104;-49
2023/03/20 02:48:43;;;;;;;24.15;13.02;;;8.30;99.90;;;;;;5031977;28;20571;-49
2023/03/20 02:51:21;;;;;;;25.50;13.23;;;8.40;99.90;;;;;;5032892;28;20082;-49
2023/03/20 02:54:12;;;;;;;23.33;13.43;;;8.30;99.90;;;;;;5031744;28;20050;-49
2023/03/20 02:56:41;;;;;;;26.50;15.10;;;8.40;99.90;;;;;;5032826;28;20129;-49
2023/03/20 02:59:24;;;;;;;23.60;12.80;;;8.40;99.90;;;;;;5043391;28;20037;-49
2023/03/20 03:02:01;;;;;;;26.40;13.45;;;8.40;99.90;;;;;;5052357;28;20071;-51
2023/03/20 03:04:28;;;;;;;;;;;8.40;99.90;;;;;;5034193;28;20450;-50
2023/03/20 03:06:58;;;;;;;27.30;15.48;;;8.40;99.90;;;;;;5031732;28;19916;-49
2023/03/20 03:09:38;;;;;;;31.98;17.02;;;8.40;99.90;;;;;;5043196;28;20076;-49
2023/03/20 03:12:16;;;;;;;28.00;15.88;;;8.40;99.90;;;;;;5034353;28;20384;-49
2023/03/20 03:14:49;;;;;;;26.60;17.40;;;8.40;99.90;;;;;;5037411;28;20125;-49
2023/03/20 03:17:18;;;;;;;26.13;16.55;;;8.40;99.90;;;;;;5033621;28;20426;-50
2023/03/20 03:19:48;;;;;;;27.90;16.80;;;8.40;99.90;;;;;;5043314;28;20033;-49
2023/03/20 03:22:17;;;;;;;29.88;17.38;;;8.40;99.90;;;;;;5032415;28;20037;-49
2023/03/20 03:24:48;;;;;;;27.35;16.45;;;8.40;99.90;;;;;;5046830;28;20060;-51
2023/03/20 03:27:14;;;;;;;33.95;17.85;;;8.40;99.90;;;;;;5052528;28;20134;-49
2023/03/20 03:29:41;;;;;;;27.13;17.67;;;8.40;99.90;;;;;;5051724;28;20529;-49
2023/03/20 03:32:21;;;;;;;28.60;16.35;;;8.40;99.90;;;;;;5052151;28;20709;-51
2023/03/20 03:34:47;;;;;;;35.60;17.60;;;8.40;99.90;;;;;;5052285;28;20453;-50
2023/03/20 03:37:27;;;;;;;28.90;16.95;;;8.40;99.90;;;;;;5034614;28;20068;-52
2023/03/20 03:40:05;;;;;;;25.83;15.32;;;8.40;99.90;;;;;;5032173;28;20034;-49
2023/03/20 03:42:37;;;;;;;27.30;14.55;;;8.40;99.90;;;;;;5031446;28;20037;-49
2023/03/20 03:45:23;;;;;;;25.88;16.10;;;8.40;99.90;;;;;;5032352;28;20045;-49
2023/03/20 03:47:55;;;;;;;23.35;13.68;;;8.40;99.90;;;;;;5031373;28;20106;-49
2023/03/20 03:50:52;;;;;;;26.30;12.40;;;8.40;99.90;;;;;;5032311;28;20041;-49
2023/03/20 03:53:30;;;;;;;27.10;12.63;;;8.40;99.90;;;;;;5020213;28;20424;-51
2023/03/20 03:56:00;;;;;;;22.45;12.15;;;8.40;99.90;;;;;;5031150;28;20049;-51
2023/03/20 03:58:36;;;;;;;17.88;10.93;;;8.30;99.90;;;;;;5031208;28;20491;-51
2023/03/20 04:01:03;;;;;;;15.20;10.18;;;8.30;99.90;;;;;;5031694;28;20095;-51
2023/03/20 04:03:39;;;;;;;25.23;11.05;;;8.40;99.90;;;;;;5032094;28;20033;-49
2023/03/20 04:06:06;;;;;;;17.75;11.02;;;8.40;99.90;;;;;;5032041;28;20403;-49
2023/03/20 04:08:32;;;;;;;19.33;10.43;;;8.30;99.90;;;;;;5030390;28;20056;-49
2023/03/20 04:10:58;;;;;;;16.55;10.70;;;8.30;99.90;;;;;;5031589;28;20083;-49
2023/03/20 04:13:23;;;;;;;19.20;9.73;;;8.30;99.90;;;;;;5045994;28;20032;-49
2023/03/20 04:15:49;;;;;;;13.80;8.27;;;8.30;99.90;;;;;;5051567;28;20554;-52
2023/03/20 04:18:17;;;;;;;14.60;8.05;;;8.40;99.90;;;;;;5050585;28;20033;-50
2023/03/20 04:20:46;;;;;;;14.00;7.28;;;8.30;99.90;;;;;;5040694;28;20045;-50
2023/03/20 04:23:13;;;;;;;14.60;7.32;;;8.30;99.90;;;;;;5031189;28;20045;-50
2023/03/20 04:25:38;;;;;;;14.85;8.98;;;8.30;99.90;;;;;;5040648;28;20048;-49
2023/03/20 04:28:04;;;;;;;16.47;8.67;;;8.30;99.90;;;;;;5050260;28;20033;-51
2023/03/20 04:30:30;;;;;;;11.35;7.97;;;8.30;99.90;;;;;;5042239;28;20076;-50
2023/03/20 04:32:56;;;;;;;13.63;8.27;;;8.30;99.90;;;;;;5039409;28;20076;-49
2023/03/20 04:35:22;;;;;;;20.20;8.80;;;8.30;99.90;;;;;;5045749;28;20046;-49
2023/03/20 04:37:48;;;;;;;16.05;8.45;;;8.30;99.90;;;;;;5034168;28;20036;-49
2023/03/20 04:40:13;;;;;;;12.05;8.82;;;8.30;99.90;;;;;;5038069;28;20057;-49
2023/03/20 04:42:39;;;;;;;20.53;10.63;;;8.20;99.90;;;;;;5035128;28;20073;-49
2023/03/20 04:45:06;;;;;;;18.65;10.65;;;8.20;99.90;;;;;;5048703;28;20645;-49
2023/03/20 04:47:31;;;;;;;;;;;8.20;99.90;;;;;;5045869;28;20037;-50
2023/03/20 04:49:57;;;;;;;17.65;10.15;;;8.20;99.90;;;;;;5030779;28;19927;-49
2023/03/20 04:52:23;;;;;;;12.37;8.73;;;8.20;99.90;;;;;;5030575;28;20136;-49
2023/03/20 04:54:48;;;;;;;18.10;9.87;;;8.20;99.90;;;;;;5030543;28;20279;-49
2023/03/20 04:57:15;;;;;;;19.73;10.70;;;8.20;99.90;;;;;;5030777;28;20495;-51
2023/03/20 04:59:40;;;;;;;;;;;8.10;99.90;;;;;;5034988;28;20425;-49
2023/03/20 05:02:06;;;;;;;20.63;10.75;;;8.10;99.90;;;;;;5050473;28;19927;-53
2023/03/20 05:04:31;;;;;;;19.53;12.17;;;8.10;99.90;;;;;;5050865;28;20029;-49
2023/03/20 05:06:57;;;;;;;24.70;12.57;;;8.10;99.90;;;;;;5050610;28;20514;-49
2023/03/20 05:09:22;;;;;;;20.87;12.73;;;8.10;99.90;;;;;;5049554;28;20124;-49
2023/03/20 05:11:48;;;;;;;17.13;12.37;;;8.10;99.90;;;;;;5049073;28;20045;-51
2023/03/20 05:14:14;;;;;;;20.13;12.43;;;8.10;99.90;;;;;;5050537;28;20370;-49
2023/03/20 05:16:39;;;;;;;22.88;13.32;;;8.10;99.90;;;;;;5050542;28;20044;-49
2023/03/20 05:19:05;;;;;;;22.87;14.00;;;8.10;99.90;;;;;;5049143;28;20036;-50
2023/03/20 05:21:31;;;;;;;20.88;13.93;;;8.00;99.90;;;;;;5049689;28;20045;-52
2023/03/20 05:23:57;;;;;;;21.27;13.00;;;8.00;99.90;;;;;;5050431;28;20756;-50
2023/03/20 05:26:22;;;;;;;20.77;13.77;;;8.00;99.90;;;;;;5050583;28;20500;-49
2023/03/20 05:28:48;;;;;;;21.10;13.77;;;8.00;99.90;;;;;;5049355;28;20041;-50
2023/03/20 05:31:13;;;;;;;23.30;15.57;;;7.90;99.90;;;;;;5049917;28;20087;-49
2023/03/20 05:33:39;;;;;;;21.70;15.10;;;7.90;99.90;;;;;;5049762;28;20271;-49
2023/03/20 05:36:06;;;;;;;25.90;15.65;;;7.90;99.90;;;;;;5046177;28;20427;-49
2023/03/20 05:38:32;;;;;;;;;;;7.90;99.90;;;;;;5029580;28;20034;-49
2023/03/20 05:40:58;;;;;;;20.27;15.98;;;7.90;99.90;;;;;;5034629;28;19931;-49
2023/03/20 05:43:24;;;;;;;21.27;15.93;;;7.90;99.90;;;;;;5031225;28;20294;-50
2023/03/20 05:45:50;;;;;;;24.55;16.63;;;7.90;99.90;;;;;;5031385;28;20048;-50
2023/03/20 05:48:15;;;;;;;20.43;14.93;;;7.90;99.90;;;;;;5039964;28;20049;-50
2023/03/20 05:50:41;;;;;;;26.20;17.03;;;7.90;99.90;;;;;;5029686;28;20048;-49
2023/03/20 05:53:07;;;;;;;21.33;15.70;;;8.00;99.90;;;;;;5029805;28;20515;-50
2023/03/20 05:55:32;;;;;;;28.20;15.52;;;8.00;99.90;;;;;;5030466;28;20315;-49
2023/03/20 05:57:58;;;;;;;19.10;15.70;;;7.90;99.90;;;;;;5068904;28;20650;-49
2023/03/20 06:00:24;;;;;;;23.00;14.83;;;7.90;99.90;;;;;;5069655;28;20116;-50
2023/03/20 06:02:50;;;;;;;19.25;14.18;;;7.90;99.90;;;;;;5069667;28;20036;-49
2023/03/20 06:05:15;;;;;;;19.77;14.52;;;7.90;99.90;;;;;;5057628;28;20041;-49
2023/03/20 06:07:41;;;;;;;22.58;15.00;;;7.90;99.90;;;;;;5048296;28;20098;-50
2023/03/20 06:10:07;;;;;;;16.43;13.60;;;7.90;99.90;;;;;;5049731;28;20139;-49
2023/03/20 06:12:33;;;;;;;20.08;13.88;;;8.00;99.90;;;;;;5049451;28;20049;-49
2023/03/20 06:14:58;;;;;;;20.13;11.60;;;8.00;99.90;;;;;;5049512;28;20052;-49
2023/03/20 06:17:24;;;;;;;14.73;11.10;;;8.00;99.90;;;;;;5048937;28;20045;-51
2023/03/20 06:19:50;;;;;;;16.88;12.18;;;7.90;99.90;;;;;;5047577;28;20051;-52
2023/03/20 06:22:15;;;;;;;15.07;10.53;;;8.00;99.90;;;;;;5049269;28;20040;-49
2023/03/20 06:24:42;;;;;;;14.77;10.57;;;8.00;99.90;;;;;;5049487;28;20079;-49
2023/03/20 06:27:07;;;;;;;17.65;9.73;;;8.00;99.90;;;;;;5049605;28;20106;-50
2023/03/20 06:29:33;;;;;;;16.93;9.57;;;8.00;99.90;;;;;;5049075;28;20044;-49
2023/03/20 06:31:59;;;;;;;16.50;9.93;;;8.00;99.90;;;;;;5049174;28;20275;-53
2023/03/20 06:34:25;;;;;;;15.53;9.83;;;8.00;99.90;;;;;;5049347;28;20120;-49
2023/03/20 06:36:51;;;;;;;14.80;9.93;;;8.00;99.90;;;;;;5049390;28;20048;-53
2023/03/20 06:39:16;;;;;;;17.23;9.33;;;8.00;99.90;;;;;;5048425;28;20037;-49
2023/03/20 06:41:42;;;;;;;15.10;8.83;;;8.00;99.90;;;;;;5037971;28;20334;-49
2023/03/20 06:44:07;;;;;;;15.70;8.93;;;8.10;99.90;;;;;;5029526;28;20029;-49
2023/03/20 06:46:33;;;;;;;10.10;7.97;;;8.10;99.90;;;;;;5030199;28;20084;-50
2023/03/20 06:48:59;;;;;;;12.80;8.30;;;8.10;99.90;;;;;;5044453;28;20294;-49
2023/03/20 06:51:24;;;;;;;13.50;8.77;;;8.10;99.90;;;;;;5048793;28;20183;-49
2023/03/20 06:53:50;;;;;;;15.03;8.40;;;8.10;99.90;;;;;;5034346;28;20502;-49
2023/03/20 06:56:15;;;;;;;15.80;9.40;;;8.10;99.90;;;;;;5040193;28;20033;-50
2023/03/20 06:58:41;;;;;;;18.17;9.97;;;8.20;99.90;;;;;;5028131;28;20394;-48
2023/03/20 07:01:16;;;;;;;14.00;7.47;;;8.20;99.90;;;;;;5028608;28;20053;-49
2023/03/20 07:03:42;;;;;;;11.55;7.90;;;8.20;99.90;;;;;;5029109;28;20701;-48
2023/03/20 07:06:08;;;;;;;12.75;7.93;;;8.20;99.90;;;;;;5029125;28;20585;-48
2023/03/20 07:08:35;;;;;;;13.43;8.32;;;8.20;99.90;;;;;;5028087;28;20064;-48
2023/03/20 07:11:03;;;;;;;14.50;8.45;;;8.20;99.90;;;;;;5029735;28;20060;-49
2023/03/20 07:13:29;;;;;;;10.00;6.75;;;8.20;99.90;;;;;;5035841;28;20054;-48
2023/03/20 07:15:54;;;;;;;12.43;7.55;;;8.20;99.90;;;;;;5036550;28;20060;-50
2023/03/20 07:18:21;;;;;;;17.67;7.63;;;8.20;99.90;;;;;;5030868;28;20033;-48
2023/03/20 07:20:46;;;;;;;14.05;6.85;;;8.20;99.90;;;;;;5041265;28;20417;-48
2023/03/20 07:23:12;;;;;;;15.73;8.27;;;8.20;99.90;;;;;;5040308;28;20037;-49
2023/03/20 07:25:37;;;;;;;13.77;8.17;;;8.20;99.90;;;;;;5032747;28;20037;-48
2023/03/20 07:28:04;;;;;;;19.20;10.03;;;8.20;99.90;;;;;;5030264;28;20124;-49
2023/03/20 07:30:31;;;;;;;;;;;8.30;99.90;;;;;;5032626;28;20770;-48
2023/03/20 07:32:56;;;;;;;17.30;7.93;;;8.30;99.90;;;;;;5037244;28;20408;-48
2023/03/20 07:35:23;;;;;;;16.17;8.50;;;8.30;99.90;;;;;;5050942;28;20339;-48
2023/03/20 07:37:48;;;;;;;14.40;8.98;;;8.30;99.90;;;;;;5042651;28;20051;-49
2023/03/20 07:40:14;;;;;;;18.27;8.27;;;8.30;99.90;;;;;;5047351;28;20127;-51
2023/03/20 07:42:40;;;;;;;13.70;7.72;;;8.30;99.90;;;;;;5045645;28;20049;-48
2023/03/20 07:45:08;;;;;;;12.82;7.80;;;8.30;99.90;;;;;;5031788;28;20064;-49
2023/03/20 07:47:34;;;;;;;13.80;7.72;;;8.30;99.90;;;;;;5032472;28;20041;-49
2023/03/20 07:49:59;;;;;;;14.15;8.73;;;8.30;99.90;;;;;;5032025;28;20045;-48
2023/03/20 07:52:25;;;;;;;12.55;8.32;;;8.30;99.90;;;;;;5031608;28;20523;-49
2023/03/20 07:54:51;;;;;;;15.07;8.98;;;8.30;99.90;;;;;;5051865;28;20087;-51
2023/03/20 07:57:17;;;;;;;14.45;8.85;;;8.30;99.90;;;;;;5050173;28;20103;-49
2023/03/20 07:59:43;;;;;;;17.30;9.05;;;8.30;99.90;;;;;;5038872;28;20402;-48
2023/03/20 08:02:14;;;;;;;17.52;11.18;;;8.30;99.90;;;;;;5044798;28;20037;-49
2023/03/20 08:04:40;;;;;;;14.07;9.35;;;8.40;99.90;;;;;;5030382;28;20040;-49
2023/03/20 08:07:06;;;;;;;18.92;9.75;;;8.40;99.90;;;;;;5042290;28;20083;-54
2023/03/20 08:09:31;;;;;;;21.55;9.50;;;8.40;99.90;;;;;;5042146;28;20375;-49
2023/03/20 08:11:57;;;;;;;21.00;10.02;;;8.50;99.90;;;;;;5046274;28;20044;-59
2023/03/20 08:14:23;;;;;;;20.13;11.20;;;8.50;99.90;;;;;;5044900;28;20709;-49
2023/03/20 08:16:48;;;;;;;18.90;9.10;;;8.50;99.90;;;;;;5045925;28;20037;-48
2023/03/20 08:19:14;;;;;;;15.17;10.30;;;8.50;99.90;;;;;;5042564;28;20033;-53
2023/03/20 08:21:40;;;;;;;21.40;10.48;;;8.50;99.90;;;;;;5044040;28;20040;-50
2023/03/20 08:24:06;;;;;;;21.17;10.03;;;8.60;99.90;;;;;;5044752;28;20132;-52
2023/03/20 08:26:32;;;;;;;18.17;10.18;;;8.60;99.90;;;;;;5042821;28;20287;-51
2023/03/20 08:28:58;;;;;;;24.20;11.03;;;8.60;99.90;;;;;;5042006;28;20071;-51
2023/03/20 08:31:24;;;;;;;22.08;11.35;;;8.60;99.90;;;;;;5040934;28;20041;-51
2023/03/20 08:33:49;;;;;;;20.60;10.47;;;8.70;99.90;;;;;;5043638;28;20120;-49
2023/03/20 08:36:18;;;;;;;19.30;10.80;;;8.70;99.90;;;;;;5041624;28;20103;-51
2023/03/20 08:38:44;;;;;;;23.48;10.63;;;8.80;99.90;;;;;;5042345;28;20544;-49
2023/03/20 08:41:09;;;;;;;20.27;12.07;;;8.80;99.90;;;;;;5042591;28;20033;-50
2023/03/20 08:43:35;;;;;;;21.40;11.52;;;8.80;99.90;;;;;;5044913;28;20098;-50
2023/03/20 08:46:01;;;;;;;20.52;10.57;;;8.80;99.90;;;;;;5045136;28;20037;-48
2023/03/20 08:48:26;;;;;;;21.17;11.93;;;8.90;99.90;;;;;;5041609;28;20655;-49
2023/03/20 08:50:52;;;;;;;22.20;11.15;;;9.00;99.90;;;;;;5045458;28;20040;-49
2023/03/20 08:53:18;;;;;;;17.92;10.52;;;9.00;99.90;;;;;;5042782;28;20466;-49
2023/03/20 08:55:48;;;;;;;19.30;11.90;;;9.10;99.90;;;;;;5044749;28;20080;-50
2023/03/20 08:58:14;;;;;;;22.10;11.88;;;9.10;99.90;;;;;;5038033;28;20041;-48
2023/03/20 09:00:40;;;;;;;17.33;10.30;;;9.20;99.90;;;;;;5044186;28;20513;-49
2023/03/20 09:03:06;;;;;;;19.35;11.57;;;9.20;99.90;;;;;;5043437;28;20475;-52
2023/03/20 09:05:35;;;;;;;17.00;10.23;;;9.30;99.90;;;;;;5041558;28;20124;-51
2023/03/20 09:08:01;;;;;;;15.43;10.38;;;9.30;99.90;;;;;;5039595;28;20794;-48
2023/03/20 09:10:26;;;;;;;20.47;10.87;;;9.40;99.90;;;;;;5043665;28;20132;-49
2023/03/20 09:12:52;;;;;;;18.87;10.87;;;9.40;99.90;;;;;;5041279;28;20043;-50
2023/03/20 09:15:17;;;;;;;22.70;10.90;;;9.50;99.90;;;;;;5041832;28;20110;-50
2023/03/20 09:17:43;;;;;;;18.85;9.68;;;9.50;99.90;;;;;;5033956;28;20112;-52
2023/03/20 09:20:09;;;;;;;15.40;10.27;;;9.60;99.90;;;;;;5039423;28;20041;-49
2023/03/20 09:22:35;;;;;;;17.58;10.25;;;9.70;99.90;;;;;;5036462;28;20491;-48
2023/03/20 09:25:01;;;;;;;18.55;9.63;;;9.80;99.90;;;;;;5039104;28;20068;-51
2023/03/20 09:27:26;;;;;;;14.03;9.37;;;9.90;99.90;;;;;;5033830;28;20072;-50
2023/03/20 09:29:52;;;;;;;20.00;9.50;;;9.90;99.90;;;;;;5032729;28;20041;-49
2023/03/20 09:32:18;;;;;;;18.77;9.80;;;10.00;99.90;;;;;;5038004;28;20086;-49
2023/03/20 09:34:43;;;;;;;16.38;10.02;;;10.00;99.90;;;;;;5041547;28;20488;-49
2023/03/20 09:37:09;;;;;;;16.83;9.60;;;10.00;99.90;;;;;;5035941;28;20273;-52
2023/03/20 09:39:35;;;;;;;14.93;9.60;;;10.10;99.90;;;;;;5037816;28;20037;-49
2023/03/20 09:42:35;;;;;;;15.23;8.90;;;10.20;99.90;;;;;;5041822;28;20279;-49
2023/03/20 09:45:17;;;;;;;21.50;9.77;;;10.30;99.90;;;;;;5018199;28;20048;-49
2023/03/20 09:48:12;;;;;;;15.95;8.85;;;10.30;99.90;;;;;;5039083;28;20048;-49
2023/03/20 09:50:59;;;;;;;12.27;7.97;;;10.30;99.90;;;;;;5042341;28;20090;-51
2023/03/20 09:53:32;;;;;;;13.30;7.53;;;10.20;99.90;;;;;;5043648;28;20049;-51
2023/03/20 09:55:59;;;;;;;11.48;6.93;;;10.30;99.90;;;;;;5042761;28;20049;-52
2023/03/20 09:58:36;;;;;;;16.75;8.07;;;10.40;99.90;;;;;;5041844;28;20052;-49
2023/03/20 10:01:05;;;;;;;14.20;6.72;;;10.40;99.90;;;;;;5041431;28;20033;-49
2023/03/20 10:03:56;;;;;;;9.90;6.75;;;10.40;99.90;;;;;;5042562;28;20144;-50
2023/03/20 10:06:22;;;;;;;12.68;7.07;;;10.40;99.90;;;;;;5040766;28;20117;-49
2023/03/20 10:08:48;;;;;;;10.65;6.72;;;10.50;99.90;;;;;;5040595;28;20104;-48
2023/03/20 10:11:21;;;;;;;14.10;8.00;;;10.50;99.90;;;;;;5043191;28;20045;-50
2023/03/20 10:14:09;;;;;;;12.48;7.95;;;10.60;99.90;;;;;;5038610;28;20098;-51
2023/03/20 10:16:58;;;;;;;14.90;6.65;;;10.70;99.90;;;;;;5035944;28;20076;-52
2023/03/20 10:19:35;;;;;;;9.77;5.53;;;10.70;99.90;;;;;;5036263;28;20177;-49
2023/03/20 10:22:05;;;;;;;12.55;7.63;;;10.80;99.90;;;;;;5037379;28;20047;-49
2023/03/20 10:24:51;;;;;;;13.32;6.72;;;10.90;99.90;;;;;;5034906;28;20059;-51
2023/03/20 10:27:25;;;;;;;10.23;6.30;;;11.00;99.90;;;;;;5035039;28;20036;-50
2023/03/20 10:30:28;;;;;;;12.30;6.07;;;11.00;99.90;;;;;;5035548;28;20045;-49
2023/03/20 10:33:29;;;;;;;11.88;7.22;;;11.00;99.90;;;;;;5030973;28;20038;-54
2023/03/20 10:36:28;;;;;;;8.48;5.15;;;11.00;99.90;;;;;;5035152;28;20045;-49
2023/03/20 10:39:13;;;;;;;15.77;6.32;;;11.00;99.90;;;;;;5036386;28;20037;-53
2023/03/20 10:41:45;;;;;;;17.58;6.82;;;10.90;99.90;;;;;;5036860;28;20033;-49
2023/03/20 10:44:21;;;;;;;11.15;6.78;;;10.80;99.90;;;;;;5036921;28;20036;-48
2023/03/20 10:46:52;;;;;;;17.92;8.05;;;10.70;99.90;;;;;;5038205;28;20104;-49
2023/03/20 10:49:44;;;;;;;14.27;6.95;;;10.70;99.90;;;;;;5034271;28;20037;-49
2023/03/20 10:52:22;;;;;;;15.07;7.63;;;10.60;99.90;;;;;;5037554;28;20102;-49
2023/03/20 10:54:54;;;;;;;15.52;8.35;;;10.50;99.90;;;;;;5040819;28;20037;-52
2023/03/20 10:57:26;;;;;;;14.18;7.47;;;10.50;99.90;;;;;;5032434;28;20052;-49
2023/03/20 10:59:55;;;;;;;17.02;7.93;;;10.50;99.90;;;;;;5038079;28;20446;-49
2023/03/20 11:02:24;;;;;;;15.85;7.95;;;10.40;99.90;;;;;;5040606;28;20434;-49
2023/03/20 11:04:50;;;;;;;14.50;6.85;;;10.50;99.90;;;;;;5037543;28;20037;-49
2023/03/20 11:07:22;;;;;;;15.07;7.78;;;10.40;99.90;;;;;;5035310;28;20045;-49
2023/03/20 11:10:03;;;;;;;14.18;7.90;;;10.40;99.90;;;;;;5039233;28;20502;-51
2023/03/20 11:12:33;;;;;;;15.48;8.38;;;10.40;99.90;;;;;;5039557;28;20730;-50
2023/03/20 11:15:02;;;;;;;12.85;7.47;;;10.30;99.90;;;;;;5036428;28;20037;-50
2023/03/20 11:17:28;;;;;;;11.63;8.20;;;10.30;99.90;;;;;;5039516;28;20087;-52
2023/03/20 11:20:03;;;;;;;12.05;7.10;;;10.20;99.90;;;;;;5041442;28;20040;-48
2023/03/20 11:22:28;;;;;;;10.68;7.15;;;10.10;99.90;;;;;;5040637;28;20130;-49
2023/03/20 11:25:01;;;;;;;16.00;7.60;;;10.10;99.90;;;;;;5042328;28;20068;-49
2023/03/20 11:27:29;;;;;;;11.25;7.13;;;10.00;99.90;;;;;;5042025;28;20047;-49
2023/03/20 11:29:57;;;;;;;15.80;8.70;;;10.00;99.90;;;;;;5037776;28;20358;-49
2023/03/20 11:32:47;;;;;;;22.48;8.60;;;10.00;99.90;;;;;;5040790;28;20056;-49
2023/03/20 11:35:25;;;;;;;13.45;8.95;;;10.00;99.90;;;;;;5037853;28;20087;-48
2023/03/20 11:37:53;;;;;;;12.40;7.25;;;10.10;99.90;;;;;;5042277;28;20029;-51
2023/03/20 11:40:25;;;;;;;13.23;7.10;;;10.10;99.90;;;;;;5037429;28;20029;-49
2023/03/20 11:42:52;;;;;;;9.05;6.43;;;10.10;99.90;;;;;;5039764;28;20048;-49
2023/03/20 11:45:18;;;;;;;14.30;7.85;;;10.10;99.90;;;;;;5039918;28;20068;-50
2023/03/20 11:47:52;;;;;;;11.35;6.32;;;10.00;99.90;;;;;;5037981;28;20064;-50
2023/03/20 11:50:32;;;;;;;11.25;7.10;;;10.00;99.90;;;;;;5040817;28;20060;-49
2023/03/20 11:53:00;;;;;;;16.45;7.95;;;10.00;99.90;;;;;;5040431;28;20406;-52
2023/03/20 11:55:33;;;;;;;11.80;7.63;;;9.90;99.90;;;;;;5038809;28;20037;-49
2023/03/20 11:58:03;;;;;;;14.05;7.18;;;10.00;99.90;;;;;;5042371;28;20048;-50
2023/03/20 12:00:36;;;;;;;15.45;6.57;;;9.90;99.90;;;;;;5039876;28;20428;-49
2023/03/20 12:03:02;;;;;;;13.10;7.05;;;10.00;99.90;;;;;;5033323;28;20039;-53
2023/03/20 12:05:28;;;;;;;;;;;10.00;99.90;;;;;;5036523;28;20690;-49
2023/03/20 12:07:57;;;;;;;9.25;6.57;;;10.00;99.90;;;;;;5038806;28;20019;-50
2023/03/20 12:10:28;;;;;;;13.48;6.75;;;10.00;99.90;;;;;;5036386;28;20048;-48
2023/03/20 12:13:00;;;;;;;9.77;5.53;;;9.90;99.90;;;;;;5040644;28;20041;-51
2023/03/20 12:15:39;;;;;;;12.93;6.50;;;9.90;99.90;;;;;;5041572;28;20394;-49
2023/03/20 12:18:33;;;;;;;10.98;4.38;;;9.90;99.90;;;;;;5038217;28;20068;-51
2023/03/20 12:21:37;;;;;;;12.95;5.13;;;9.90;99.90;;;;;;5040312;28;20620;-49
2023/03/20 12:24:14;;;;;;;10.43;5.63;;;9.90;99.90;;;;;;4968049;28;20057;-50
2023/03/20 12:27:07;;;;;;;11.07;4.53;;;9.90;99.90;;;;;;5041948;28;20524;-49
2023/03/20 12:29:57;;;;;;;9.90;4.35;;;10.00;99.90;;;;;;5038877;28;20041;-50
2023/03/20 12:32:35;;;;;;;9.63;3.63;;;10.00;99.90;;;;;;5044615;28;20037;-51
2023/03/20 12:35:29;;;;;;;9.23;3.70;;;10.00;99.90;;;;;;5043100;28;20071;-49
2023/03/20 12:37:55;;;;;;;8.63;4.40;;;10.00;99.90;;;;;;5043666;28;20041;-49
2023/03/20 12:40:31;;;;;;;8.18;3.40;;;10.10;99.90;;;;;;5041725;28;20041;-50
2023/03/20 12:43:08;;;;;;;13.68;4.20;;;10.10;99.90;;;;;;5042642;28;20116;-49
2023/03/20 12:45:54;;;;;;;8.45;2.55;;;10.10;99.90;;;;;;5043337;28;20040;-49
2023/03/20 12:48:46;;;;;;;4.23;2.73;;;10.20;99.90;;;;;;5044224;28;20545;-49
2023/03/20 12:51:38;;;;;;;9.18;2.92;;;10.20;99.90;;;;;;5033154;28;20303;-54
2023/03/20 12:54:14;;;;;;;6.95;2.70;;;10.20;99.90;;;;;;5043296;28;20037;-52
2023/03/20 12:57:02;;;;;;;7.07;4.13;;;10.20;99.90;;;;;;5044351;28;20055;-49
2023/03/20 12:59:40;;;;;;;5.35;2.25;;;10.10;99.90;;;;;;5042987;28;20040;-50
2023/03/20 13:02:39;;;;;;;6.60;2.63;;;10.20;99.90;;;;;;5043118;28;20035;-51